createdAt,value
2022-12-29T00:01:11.311Z,56.95
2022-12-29T00:03:39.644Z,57.28
2022-12-29T00:06:09.226Z,56.56
2022-12-29T00:08:46.027Z,56.67
2022-12-29T00:11:16.091Z,56.55
2022-12-29T00:14:02.440Z,56.16
2022-12-29T00:16:31.759Z,56.04
2022-12-29T00:19:00.150Z,57.12
2022-12-29T00:21:56.239Z,56.97
2022-12-29T00:24:42.317Z,57.75
2022-12-29T00:27:31.569Z,58.22
2022-12-29T00:30:17.392Z,57.72
2022-12-29T00:33:03.832Z,56.94
2022-12-29T00:35:35.281Z,56.80
2022-12-29T00:38:27.260Z,56.61
2022-12-29T00:41:12.495Z,56.94
2022-12-29T00:43:57.806Z,56.90
2022-12-29T00:46:25.928Z,57.34
2022-12-29T00:49:11.402Z,57.36
2022-12-29T00:51:39.688Z,57.55
2022-12-29T00:54:09.355Z,57.72
2022-12-29T00:56:37.801Z,57.90
2022-12-29T00:59:07.421Z,57.52
2022-12-29T01:01:36.593Z,57.75
2022-12-29T01:04:05.355Z,57.79
2022-12-29T01:06:34.157Z,58.01
2022-12-29T01:09:20.131Z,57.33
2022-12-29T01:11:51.027Z,56.34
2022-12-29T01:14:20.122Z,56.55
2022-12-29T01:16:48.806Z,56.70
2022-12-29T01:19:19.999Z,56.55
2022-12-29T01:21:48.378Z,56.50
2022-12-29T01:24:17.565Z,56.73
2022-12-29T01:26:46.615Z,56.84
2022-12-29T01:29:16.247Z,57.11
2022-12-29T01:31:47.224Z,57.46
2022-12-29T01:34:15.766Z,56.97
2022-12-29T01:36:44.478Z,56.98
2022-12-29T01:39:14.357Z,56.62
2022-12-29T01:41:42.773Z,56.73
2022-12-29T01:44:48.436Z,55.91
2022-12-29T01:47:25.510Z,56.07
2022-12-29T01:49:57.078Z,56.11
2022-12-29T01:52:29.174Z,56.19
2022-12-29T01:54:59.382Z,55.97
2022-12-29T01:57:30.027Z,55.88
2022-12-29T02:00:02.524Z,55.77
2022-12-29T02:02:45.296Z,55.81
2022-12-29T02:05:18.221Z,55.62
2022-12-29T02:07:47.480Z,55.48
2022-12-29T02:10:16.027Z,55.33
2022-12-29T02:12:44.450Z,55.19
2022-12-29T02:15:12.918Z,55.54
2022-12-29T02:17:55.724Z,55.48
2022-12-29T02:20:52.702Z,55.29
2022-12-29T02:23:40.304Z,54.89
2022-12-29T02:26:37.186Z,54.81
2022-12-29T02:29:27.127Z,55.11
2022-12-29T02:32:03.223Z,55.11
2022-12-29T02:34:42.540Z,54.66
2022-12-29T02:37:19.770Z,55.42
2022-12-29T02:39:59.169Z,55.25
2022-12-29T02:42:37.854Z,55.36
2022-12-29T02:45:11.591Z,55.23
2022-12-29T02:47:50.820Z,55.13
2022-12-29T02:50:25.363Z,55.06
2022-12-29T02:52:59.599Z,55.09
2022-12-29T02:55:27.175Z,55.23
2022-12-29T02:58:19.833Z,55.56
2022-12-29T03:01:04.323Z,55.63
2022-12-29T03:03:48.925Z,55.09
2022-12-29T03:06:30.749Z,55.21
2022-12-29T03:09:05.251Z,55.13
2022-12-29T03:12:11.483Z,55.00
2022-12-29T03:15:09.169Z,55.40
2022-12-29T03:17:47.485Z,55.08
2022-12-29T03:20:22.312Z,55.12
2022-12-29T03:22:54.935Z,55.15
2022-12-29T03:25:28.362Z,54.76
2022-12-29T03:28:01.890Z,55.01
2022-12-29T03:30:33.553Z,55.14
2022-12-29T03:33:05.981Z,54.97
2022-12-29T03:35:45.344Z,55.03
2022-12-29T03:38:19.473Z,54.96
2022-12-29T03:40:52.557Z,54.94
2022-12-29T03:43:22.167Z,55.35
2022-12-29T03:45:50.718Z,55.27
2022-12-29T03:48:19.678Z,55.43
2022-12-29T03:50:50.123Z,55.64
2022-12-29T03:53:19.233Z,55.64
2022-12-29T03:55:47.507Z,55.54
2022-12-29T03:58:15.669Z,55.58
2022-12-29T04:01:00.795Z,55.51
2022-12-29T04:03:29.391Z,55.28
2022-12-29T04:06:00.843Z,54.73
2022-12-29T04:08:34.025Z,54.73
2022-12-29T04:11:02.211Z,54.28
2022-12-29T04:13:30.460Z,54.44
2022-12-29T04:15:58.769Z,53.97
2022-12-29T04:18:26.909Z,54.04
2022-12-29T04:21:04.642Z,54.86
2022-12-29T04:23:38.527Z,54.81
2022-12-29T04:26:10.584Z,55.03
2022-12-29T04:29:04.745Z,55.16
2022-12-29T04:31:42.954Z,54.10
2022-12-29T04:34:11.169Z,54.13
2022-12-29T04:36:41.224Z,54.18
2022-12-29T04:39:10.710Z,55.31
2022-12-29T04:41:40.723Z,54.63
2022-12-29T04:44:13.147Z,55.14
2022-12-29T04:46:57.241Z,54.47
2022-12-29T04:49:44.874Z,54.35
2022-12-29T04:52:47.999Z,54.69
2022-12-29T04:55:17.777Z,54.99
2022-12-29T04:57:46.946Z,55.11
2022-12-29T05:00:19.560Z,55.22
2022-12-29T05:02:48.555Z,55.17
2022-12-29T05:05:17.605Z,56.06
2022-12-29T05:07:49.538Z,56.12
2022-12-29T05:10:20.010Z,56.01
2022-12-29T05:12:50.307Z,56.24
2022-12-29T05:15:19.251Z,56.15
2022-12-29T05:17:47.420Z,55.90
2022-12-29T05:20:15.579Z,55.80
2022-12-29T05:22:44.018Z,55.90
2022-12-29T05:25:12.280Z,56.05
2022-12-29T05:27:53.904Z,56.74
2022-12-29T05:30:40.751Z,56.00
2022-12-29T05:33:08.893Z,55.21
2022-12-29T05:35:37.074Z,54.96
2022-12-29T05:38:05.207Z,55.89
2022-12-29T05:40:33.479Z,55.75
2022-12-29T05:43:07.413Z,56.56
2022-12-29T05:45:57.268Z,56.36
2022-12-29T05:48:37.634Z,56.88
2022-12-29T05:51:19.919Z,57.36
2022-12-29T05:53:50.177Z,58.62
2022-12-29T05:56:19.148Z,59.76
2022-12-29T05:58:55.297Z,59.02
2022-12-29T06:01:24.462Z,57.80
2022-12-29T06:03:52.740Z,58.17
2022-12-29T06:06:22.213Z,57.09
2022-12-29T06:08:50.455Z,57.14
2022-12-29T06:11:20.848Z,57.08
2022-12-29T06:13:57.558Z,57.92
2022-12-29T06:16:26.316Z,57.39
2022-12-29T06:18:58.659Z,58.30
2022-12-29T06:21:26.808Z,57.60
2022-12-29T06:23:54.849Z,57.45
2022-12-29T06:26:23.009Z,57.08
2022-12-29T06:28:51.206Z,56.70
2022-12-29T06:31:20.858Z,56.29
2022-12-29T06:33:50.398Z,56.92
2022-12-29T06:36:19.011Z,56.86
2022-12-29T06:38:47.259Z,56.23
2022-12-29T06:41:15.348Z,56.05
2022-12-29T06:44:09.839Z,56.07
2022-12-29T06:46:52.873Z,55.94
2022-12-29T06:49:21.041Z,56.27
2022-12-29T06:51:49.148Z,55.96
2022-12-29T06:54:17.290Z,56.39
2022-12-29T06:56:45.343Z,56.77
2022-12-29T06:59:13.626Z,56.22
2022-12-29T07:01:42.413Z,55.99
2022-12-29T07:04:11.943Z,56.15
2022-12-29T07:06:41.701Z,55.75
2022-12-29T07:09:10.413Z,56.06
2022-12-29T07:11:38.759Z,56.29
2022-12-29T07:14:06.907Z,56.64
2022-12-29T07:16:35.468Z,56.39
2022-12-29T07:19:03.612Z,56.20
2022-12-29T07:21:33.173Z,56.48
2022-12-29T07:24:01.261Z,56.64
2022-12-29T07:26:35.983Z,59.93
2022-12-29T07:29:04.536Z,58.12
2022-12-29T07:31:33.353Z,56.23
2022-12-29T07:34:01.486Z,55.71
2022-12-29T07:36:34.402Z,55.74
2022-12-29T07:39:04.938Z,55.87
2022-12-29T07:41:33.127Z,55.62
2022-12-29T07:44:03.767Z,55.60
2022-12-29T07:46:56.460Z,56.20
2022-12-29T07:49:25.893Z,55.44
2022-12-29T07:51:54.260Z,55.11
2022-12-29T07:54:24.390Z,54.59
2022-12-29T07:56:53.104Z,55.23
2022-12-29T07:59:21.205Z,54.99
2022-12-29T08:01:49.403Z,54.50
2022-12-29T08:04:17.679Z,54.72
2022-12-29T08:06:46.567Z,54.74
2022-12-29T08:09:21.583Z,54.01
2022-12-29T08:11:51.367Z,53.54
2022-12-29T08:14:19.876Z,53.13
2022-12-29T08:16:48.100Z,53.58
2022-12-29T08:19:16.488Z,53.89
2022-12-29T08:21:44.553Z,53.45
2022-12-29T08:24:12.720Z,52.95
2022-12-29T08:26:40.979Z,53.30
2022-12-29T08:29:10.448Z,52.97
2022-12-29T08:31:38.796Z,53.03
2022-12-29T08:34:06.938Z,53.48
2022-12-29T08:36:35.126Z,53.66
2022-12-29T08:39:03.283Z,53.45
2022-12-29T08:41:31.381Z,53.41
2022-12-29T08:43:59.443Z,52.67
2022-12-29T08:46:29.065Z,53.20
2022-12-29T08:48:57.315Z,53.25
2022-12-29T08:51:25.607Z,52.79
2022-12-29T08:53:54.014Z,53.07
2022-12-29T08:56:23.393Z,52.73
2022-12-29T08:58:55.954Z,52.53
2022-12-29T09:01:24.908Z,52.41
2022-12-29T09:06:44.017Z,52.75
2022-12-29T09:09:12.352Z,51.86
2022-12-29T09:11:41.082Z,52.27
2022-12-29T09:14:09.121Z,52.87
2022-12-29T09:16:37.916Z,52.32
2022-12-29T09:19:07.687Z,51.96
2022-12-29T09:21:35.837Z,52.60
2022-12-29T09:24:04.148Z,51.87
2022-12-29T09:26:32.172Z,51.83
2022-12-29T09:29:00.228Z,52.05
2022-12-29T09:31:28.320Z,51.99
2022-12-29T09:33:56.418Z,51.57
2022-12-29T09:36:25.877Z,51.64
2022-12-29T09:38:55.417Z,51.49
2022-12-29T09:41:28.885Z,51.35
2022-12-29T09:44:14.979Z,51.05
2022-12-29T09:46:48.661Z,50.81
2022-12-29T09:49:25.628Z,50.79
2022-12-29T09:51:57.934Z,50.58
2022-12-29T09:54:42.458Z,50.21
2022-12-29T09:57:20.616Z,50.97
2022-12-29T09:59:52.893Z,51.92
2022-12-29T10:02:33.397Z,51.33
2022-12-29T10:05:01.957Z,51.18
2022-12-29T10:07:40.922Z,50.83
2022-12-29T10:10:24.729Z,51.90
2022-12-29T10:13:02.877Z,52.27
2022-12-29T10:15:46.049Z,51.40
2022-12-29T10:18:34.671Z,50.97
2022-12-29T10:21:10.762Z,52.32
2022-12-29T10:23:44.730Z,51.02
2022-12-29T10:26:17.205Z,51.26
2022-12-29T10:28:51.595Z,50.59
2022-12-29T10:31:23.935Z,50.39
2022-12-29T10:33:57.708Z,50.14
2022-12-29T10:36:33.133Z,50.15
2022-12-29T10:39:12.579Z,50.25
2022-12-29T10:41:46.174Z,49.63
2022-12-29T10:44:18.441Z,49.20
2022-12-29T10:46:54.935Z,49.25
2022-12-29T10:49:23.441Z,49.10
2022-12-29T10:51:53.518Z,49.12
2022-12-29T10:54:28.976Z,49.08
2022-12-29T10:57:02.511Z,48.74
2022-12-29T10:59:33.175Z,48.29
2022-12-29T11:02:16.795Z,47.84
2022-12-29T11:04:55.506Z,47.78
2022-12-29T11:07:27.275Z,47.64
2022-12-29T11:09:57.106Z,47.92
2022-12-29T11:12:28.443Z,47.73
2022-12-29T11:15:16.253Z,47.44
2022-12-29T11:17:47.254Z,47.67
2022-12-29T11:20:36.553Z,47.35
2022-12-29T11:23:06.804Z,47.06
2022-12-29T11:25:36.375Z,47.72
2022-12-29T11:28:17.524Z,48.52
2022-12-29T11:30:45.653Z,48.85
2022-12-29T11:33:13.865Z,48.56
2022-12-29T11:35:44.539Z,49.01
2022-12-29T11:38:23.051Z,49.01
2022-12-29T11:40:52.843Z,49.72
2022-12-29T11:43:28.873Z,49.89
2022-12-29T11:45:57.681Z,49.79
2022-12-29T11:48:31.208Z,50.32
2022-12-29T11:51:01.477Z,50.37
2022-12-29T11:53:34.562Z,49.95
2022-12-29T11:56:07.691Z,50.25
2022-12-29T11:58:37.828Z,50.08
2022-12-29T12:01:09.294Z,49.80
2022-12-29T12:03:40.944Z,49.95
2022-12-29T12:06:16.673Z,49.91
2022-12-29T12:08:50.964Z,50.45
2022-12-29T12:11:25.424Z,50.18
2022-12-29T12:14:01.925Z,50.52
2022-12-29T12:16:45.680Z,50.46
2022-12-29T12:19:22.376Z,51.14
2022-12-29T12:21:58.257Z,50.97
2022-12-29T12:24:38.540Z,51.27
2022-12-29T12:27:15.129Z,50.87
2022-12-29T12:29:49.317Z,50.85
2022-12-29T12:32:22.876Z,51.51
2022-12-29T12:34:52.512Z,50.31
2022-12-29T12:37:50.967Z,51.34
2022-12-29T12:40:41.764Z,50.77
2022-12-29T12:43:34.184Z,50.76
2022-12-29T12:46:18.043Z,50.56
2022-12-29T12:49:04.808Z,49.96
2022-12-29T12:51:42.538Z,51.29
2022-12-29T12:54:25.248Z,50.71
2022-12-29T12:57:04.855Z,51.54
2022-12-29T12:59:44.541Z,51.17
2022-12-29T13:02:26.748Z,51.68
2022-12-29T13:05:31.425Z,50.60
2022-12-29T13:08:26.837Z,50.67
2022-12-29T13:11:01.913Z,51.74
2022-12-29T13:13:49.622Z,51.73
2022-12-29T13:16:29.591Z,51.47
2022-12-29T13:19:05.900Z,52.04
2022-12-29T13:21:57.372Z,52.43
2022-12-29T13:24:34.115Z,52.16
2022-12-29T13:27:08.830Z,52.09
2022-12-29T13:29:42.713Z,52.03
2022-12-29T13:32:26.230Z,51.77
2022-12-29T13:35:05.261Z,51.74
2022-12-29T13:37:40.510Z,50.86
2022-12-29T13:40:17.529Z,51.30
2022-12-29T13:42:46.732Z,50.73
2022-12-29T13:45:18.997Z,51.45
2022-12-29T13:47:53.434Z,50.93
2022-12-29T13:50:24.100Z,50.73
2022-12-29T13:53:02.215Z,50.54
2022-12-29T13:55:37.884Z,50.27
2022-12-29T13:58:12.029Z,50.56
2022-12-29T14:00:50.188Z,50.64
2022-12-29T14:03:36.760Z,50.39
2022-12-29T14:06:15.100Z,51.10
2022-12-29T14:08:43.472Z,51.55
2022-12-29T14:11:13.109Z,51.99
2022-12-29T14:13:51.304Z,52.32
2022-12-29T14:16:32.007Z,52.20
2022-12-29T14:19:12.664Z,52.90
2022-12-29T14:21:41.787Z,52.31
2022-12-29T14:24:44.451Z,52.78
2022-12-29T14:28:04.163Z,52.86
2022-12-29T14:31:03.786Z,53.97
2022-12-29T14:33:33.638Z,53.44
2022-12-29T14:36:27.094Z,53.43
2022-12-29T14:38:55.329Z,52.75
2022-12-29T14:41:31.285Z,53.11
2022-12-29T14:44:19.989Z,53.41
2022-12-29T14:46:56.722Z,52.69
2022-12-29T14:49:27.633Z,53.26
2022-12-29T14:52:08.470Z,52.87
2022-12-29T14:54:50.389Z,52.32
2022-12-29T14:57:39.002Z,52.88
2022-12-29T15:00:16.848Z,52.32
2022-12-29T15:02:49.893Z,53.29
2022-12-29T15:05:32.768Z,53.09
2022-12-29T15:08:04.613Z,53.67
2022-12-29T15:10:40.678Z,53.00
2022-12-29T15:13:18.035Z,53.29
2022-12-29T15:15:46.338Z,53.04
2022-12-29T15:18:16.910Z,53.99
2022-12-29T15:20:45.356Z,52.99
2022-12-29T15:23:16.624Z,53.04
2022-12-29T15:25:52.460Z,53.08
2022-12-29T15:28:23.726Z,52.88
2022-12-29T15:30:57.229Z,53.44
2022-12-29T15:33:28.357Z,52.89
2022-12-29T15:35:58.727Z,53.08
2022-12-29T15:38:34.891Z,53.57
2022-12-29T15:41:17.720Z,53.23
2022-12-29T15:43:55.532Z,52.82
2022-12-29T15:46:24.128Z,53.03
2022-12-29T15:48:52.709Z,52.79
2022-12-29T15:51:25.751Z,52.98
2022-12-29T15:53:56.384Z,53.21
2022-12-29T15:56:24.611Z,54.08
2022-12-29T15:58:54.260Z,54.08
2022-12-29T16:01:29.799Z,53.92
2022-12-29T16:04:00.415Z,54.11
2022-12-29T16:06:31.784Z,54.68
2022-12-29T16:09:03.741Z,54.51
2022-12-29T16:11:37.115Z,54.83
2022-12-29T16:14:10.719Z,54.94
2022-12-29T16:16:41.734Z,55.43
2022-12-29T16:19:16.124Z,55.48
2022-12-29T16:21:45.238Z,55.58
2022-12-29T16:24:25.688Z,55.34
2022-12-29T16:27:11.032Z,55.55
2022-12-29T16:29:39.415Z,55.80
2022-12-29T16:32:26.898Z,56.05
2022-12-29T16:35:11.787Z,55.98
2022-12-29T16:37:40.403Z,56.43
2022-12-29T16:40:42.162Z,56.19
2022-12-29T16:43:22.505Z,55.59
2022-12-29T16:46:19.461Z,56.15
2022-12-29T16:48:53.776Z,56.23
2022-12-29T16:51:31.833Z,56.22
2022-12-29T16:54:01.232Z,55.88
2022-12-29T16:56:33.561Z,55.94
2022-12-29T16:59:06.982Z,55.79
2022-12-29T17:01:38.203Z,55.68
2022-12-29T17:04:10.079Z,55.10
2022-12-29T17:06:38.300Z,55.06
2022-12-29T17:09:22.549Z,55.52
2022-12-29T17:12:02.900Z,56.55
2022-12-29T17:14:43.064Z,56.37
2022-12-29T17:17:17.594Z,56.14
2022-12-29T17:19:49.591Z,56.07
2022-12-29T17:22:20.917Z,57.11
2022-12-29T17:24:49.126Z,56.90
2022-12-29T17:27:29.915Z,57.31
2022-12-29T17:30:01.153Z,57.43
2022-12-29T17:32:29.382Z,56.20
2022-12-29T17:34:57.460Z,56.41
2022-12-29T17:37:35.435Z,55.56
2022-12-29T17:40:04.680Z,55.80
2022-12-29T17:42:34.914Z,56.64
2022-12-29T17:45:03.741Z,56.52
2022-12-29T17:47:31.842Z,56.21
2022-12-29T17:49:59.960Z,57.18
2022-12-29T17:52:28.127Z,57.05
2022-12-29T17:54:56.571Z,56.30
2022-12-29T17:57:24.739Z,56.61
2022-12-29T17:59:54.171Z,56.88
2022-12-29T18:02:29.332Z,56.87
2022-12-29T18:04:58.108Z,56.90
2022-12-29T18:07:35.385Z,57.43
2022-12-29T18:10:04.061Z,57.58
2022-12-29T18:12:39.294Z,57.73
2022-12-29T18:15:18.902Z,58.05
2022-12-29T18:17:47.582Z,58.33
2022-12-29T18:20:16.848Z,57.72
2022-12-29T18:22:44.990Z,57.84
2022-12-29T18:25:26.339Z,57.98
2022-12-29T18:27:54.628Z,58.28
2022-12-29T18:30:24.868Z,59.24
2022-12-29T18:32:53.028Z,58.95
2022-12-29T18:35:27.843Z,59.17
2022-12-29T18:37:55.939Z,59.32
2022-12-29T18:40:24.118Z,59.68
2022-12-29T18:42:52.279Z,59.32
2022-12-29T18:45:22.126Z,58.98
2022-12-29T18:47:54.912Z,59.24
2022-12-29T18:50:23.352Z,59.68
2022-12-29T18:52:51.566Z,59.65
2022-12-29T18:55:24.647Z,59.91
2022-12-29T18:57:53.603Z,60.47
2022-12-29T19:00:23.992Z,60.45
2022-12-29T19:02:54.315Z,60.80
2022-12-29T19:05:25.844Z,60.82
2022-12-29T19:07:55.001Z,60.03
2022-12-29T19:10:24.481Z,60.03
2022-12-29T19:12:53.551Z,59.72
2022-12-29T19:15:25.363Z,59.64
2022-12-29T19:18:32.764Z,59.94
2022-12-29T19:20:49.020Z,59.79
2022-12-29T19:23:19.448Z,60.36
2022-12-29T19:25:48.852Z,59.94
2022-12-29T19:28:20.238Z,60.17
2022-12-29T19:30:52.289Z,59.51
2022-12-29T19:33:23.609Z,59.75
2022-12-29T19:35:52.753Z,59.89
2022-12-29T19:38:21.227Z,59.82
2022-12-29T19:40:51.536Z,60.43
2022-12-29T19:43:20.090Z,61.73
2022-12-29T19:45:48.304Z,61.96
2022-12-29T19:48:19.700Z,63.15
2022-12-29T19:50:49.336Z,62.32
2022-12-29T19:53:17.463Z,61.70
2022-12-29T19:55:46.264Z,61.04
2022-12-29T19:58:14.785Z,61.03
2022-12-29T20:00:43.847Z,62.45
2022-12-29T20:03:12.681Z,61.71
2022-12-29T20:05:41.696Z,60.28
2022-12-29T20:08:11.141Z,59.61
2022-12-29T20:10:39.331Z,60.50
2022-12-29T20:13:07.590Z,62.58
2022-12-29T20:15:35.769Z,64.42
2022-12-29T20:18:13.682Z,65.33
2022-12-29T20:20:42.929Z,65.13
2022-12-29T20:23:12.516Z,65.01
2022-12-29T20:25:45.605Z,63.95
2022-12-29T20:28:15.666Z,63.52
2022-12-29T20:30:44.387Z,63.37
2022-12-29T20:33:12.637Z,63.50
2022-12-29T20:35:40.703Z,64.81
2022-12-29T20:38:08.844Z,64.73
2022-12-29T20:40:45.934Z,64.13
2022-12-29T20:43:16.613Z,63.66
2022-12-29T20:45:45.096Z,62.58
2022-12-29T20:48:13.265Z,62.26
2022-12-29T20:50:41.505Z,63.43
2022-12-29T20:53:09.741Z,64.76
2022-12-29T20:55:41.266Z,63.24
2022-12-29T20:58:25.395Z,64.66
2022-12-29T21:00:54.526Z,65.98
2022-12-29T21:03:23.018Z,66.38
2022-12-29T21:05:53.107Z,66.37
2022-12-29T21:08:22.115Z,66.18
2022-12-29T21:10:52.535Z,67.14
2022-12-29T21:13:21.153Z,66.87
2022-12-29T21:15:49.540Z,67.16
2022-12-29T21:18:17.884Z,66.61
2022-12-29T21:20:45.923Z,66.63
2022-12-29T21:23:14.077Z,66.09
2022-12-29T21:25:44.929Z,66.08
2022-12-29T21:28:14.432Z,66.67
2022-12-29T21:30:43.140Z,67.00
2022-12-29T21:33:11.319Z,67.26
2022-12-29T21:35:40.106Z,68.82
2022-12-29T21:38:08.873Z,69.05
2022-12-29T21:40:38.543Z,68.53
2022-12-29T21:43:07.547Z,68.33
2022-12-29T21:45:36.074Z,68.63
2022-12-29T21:48:25.187Z,69.18
2022-12-29T21:51:12.597Z,69.12
2022-12-29T21:53:42.766Z,67.85
2022-12-29T21:56:12.884Z,65.74
2022-12-29T21:59:00.398Z,63.93
2022-12-29T22:01:49.563Z,63.40
2022-12-29T22:04:37.973Z,63.43
2022-12-29T22:07:26.143Z,62.40
2022-12-29T22:10:11.758Z,63.75
2022-12-29T22:12:58.954Z,63.76
2022-12-29T22:15:29.694Z,64.51
2022-12-29T22:17:59.449Z,64.99
2022-12-29T22:20:32.344Z,65.16
2022-12-29T22:23:01.056Z,66.65
2022-12-29T22:25:29.257Z,67.37
2022-12-29T22:27:59.901Z,67.23
2022-12-29T22:30:28.546Z,66.00
2022-12-29T22:32:59.639Z,65.69
2022-12-29T22:35:27.861Z,64.90
2022-12-29T22:37:56.055Z,65.15
2022-12-29T22:40:24.409Z,66.18
2022-12-29T22:42:52.527Z,67.43
2022-12-29T22:45:20.647Z,68.20
2022-12-29T22:47:48.799Z,68.98
2022-12-29T22:50:18.458Z,70.05
2022-12-29T22:52:46.546Z,70.16
2022-12-29T22:55:14.678Z,70.40
2022-12-29T22:57:42.865Z,69.82
2022-12-29T23:00:12.124Z,69.27
2022-12-29T23:02:40.415Z,67.38
2022-12-29T23:05:09.631Z,65.70
2022-12-29T23:07:39.119Z,65.33
2022-12-29T23:10:08.136Z,64.89
2022-12-29T23:12:36.265Z,66.13
2022-12-29T23:15:04.785Z,68.35
2022-12-29T23:17:33.185Z,69.77
2022-12-29T23:20:01.252Z,71.34
2022-12-29T23:22:29.358Z,70.44
2022-12-29T23:24:59.084Z,68.87
2022-12-29T23:27:27.247Z,68.41
2022-12-29T23:29:55.335Z,68.63
2022-12-29T23:32:23.460Z,69.47
2022-12-29T23:34:51.533Z,69.70
2022-12-29T23:37:19.678Z,70.81
2022-12-29T23:39:47.811Z,70.26
2022-12-29T23:42:17.272Z,67.83
2022-12-29T23:44:45.397Z,66.78
2022-12-29T23:47:13.721Z,66.59
2022-12-29T23:49:41.832Z,65.96
2022-12-29T23:52:09.928Z,66.23
2022-12-29T23:54:37.984Z,66.44
2022-12-29T23:57:06.087Z,66.13
2022-12-29T23:59:35.540Z,65.84
